Main page
METAR-TAF:

METAR-TAF

Airports :

Yakutsk Airport

Yakutsk, Russia

latitude: 62-01N, longitude: 129-43E, elevation: 103 m

Current weather observation

The report was made 41 minutes ago, at 05:00 UTC
Wind 6 kt from the West
Temperature -37°C
Humidity 59%
Pressure 1020 hPa
Visibility 10 km or more
no clouds below 1500 m and no cumulonimbus

METAR: UEEE 060500Z 28003MPS CAVOK M37/M42 Q1020 R23L/450150 NOSIG RMK QFE756

Time: 14:41 (05:41 UTC)

Forecast

The report was made 41 minutes ago, at 05:00 UTC
Forecast valid from 06 at 06 UTC to 07 at 12 UTC
Wind 6 kt from the West with gusts up to 16 kt
Visibility: 3200 m
mist
Temporary
from 06 at 12 UTC to 07 at 03 UTC
Wind 2 kt from variable directions
Visibility: 0300 m
at a height of 200 ft
fog

TAF: UEEE 060500Z 0606/0712 28003G08MPS 3200 BR NSC TXM37/0606Z TNM41/0721Z TEMPO 0612/0703 VRB01MPS 0300 FG VV002

Weather observations and forecasts of more than 4000 airports (METAR and TAF reports).

The available stations are represented by yellow and red dots on the map.

Hover mouse over dot to see the name of the station.

Then click to see weather observations and forecasts.

To change the map : click on the green buttons with a black cross to zoom in, on the green button with a dash to zoom out, or on the green arrows for adjacent maps.


METAR-TAF: